createdAt,value
2019-03-27T00:00:22.462Z,19.1
2019-03-27T00:01:12.323Z,19
2019-03-27T00:02:02.584Z,18.9
2019-03-27T00:02:52.996Z,18.9
2019-03-27T00:03:43.546Z,18.8
2019-03-27T00:04:33.270Z,18.8
2019-03-27T00:07:03.484Z,18.6
2019-03-27T00:07:52.438Z,18.6
2019-03-27T00:08:43.046Z,18.9
2019-03-27T00:09:32.956Z,19.7
2019-03-27T00:10:23.748Z,20.4
2019-03-27T00:11:17.121Z,20.9
2019-03-27T00:12:04.198Z,21.3
2019-03-27T00:12:54.277Z,21.6
2019-03-27T00:13:44.646Z,21.9
2019-03-27T00:14:33.588Z,22.1
2019-03-27T00:15:24.624Z,22.3
2019-03-27T00:16:13.581Z,22.4
2019-03-27T00:17:04.234Z,22.6
2019-03-27T00:17:54.295Z,22.7
2019-03-27T00:18:44.855Z,22.8
2019-03-27T00:19:34.515Z,23
2019-03-27T00:20:24.263Z,23.1
2019-03-27T00:21:14.390Z,23.2
2019-03-27T00:22:04.915Z,23.3
2019-03-27T00:22:54.725Z,23.4
2019-03-27T00:23:45.255Z,23.1
2019-03-27T00:24:35.122Z,22.5
2019-03-27T00:25:24.848Z,22.1
2019-03-27T00:26:14.335Z,21.8
2019-03-27T00:27:05.480Z,21.5
2019-03-27T00:27:55.262Z,21.3
2019-03-27T00:28:45.635Z,21.1
2019-03-27T00:29:35.539Z,20.9
2019-03-27T00:30:25.498Z,20.8
2019-03-27T00:31:18.455Z,20.7
2019-03-27T00:32:05.132Z,20.6
2019-03-27T00:32:55.894Z,20.5
2019-03-27T00:33:45.667Z,20.4
2019-03-27T00:34:35.464Z,20.3
2019-03-27T00:35:24.990Z,20.3
2019-03-27T00:36:15.312Z,20.2
2019-03-27T00:37:04.626Z,20.1
2019-03-27T00:37:55.434Z,20
2019-03-27T00:38:46.326Z,19.9
2019-03-27T00:39:35.019Z,19.9
2019-03-27T00:40:25.323Z,19.8
2019-03-27T00:41:16.336Z,19.8
2019-03-27T00:42:05.504Z,19.7
2019-03-27T00:42:56.109Z,19.6
2019-03-27T00:43:45.373Z,19.6
2019-03-27T00:44:35.921Z,19.5
2019-03-27T00:45:35.724Z,19.4
2019-03-27T00:46:16.022Z,19.4
2019-03-27T00:47:06.096Z,19.3
2019-03-27T00:47:57.046Z,19.2
2019-03-27T00:48:46.496Z,19.2
2019-03-27T00:49:36.343Z,19.1
2019-03-27T00:50:26.320Z,19.1
2019-03-27T00:51:17.359Z,19
2019-03-27T00:52:07.342Z,18.9
2019-03-27T00:52:56.678Z,18.9
2019-03-27T00:53:46.856Z,18.8
2019-03-27T00:54:36.630Z,18.8
2019-03-27T00:56:16.851Z,18.6
2019-03-27T00:57:07.753Z,18.6
2019-03-27T00:57:57.193Z,18.6
2019-03-27T00:58:47.014Z,18.5
2019-03-27T00:59:37.192Z,18.9
2019-03-27T01:00:27.485Z,19.7
2019-03-27T01:01:17.437Z,20.4
2019-03-27T01:02:07.230Z,20.9
2019-03-27T01:02:57.530Z,21.3
2019-03-27T01:03:47.635Z,21.6
2019-03-27T01:04:37.163Z,21.9
2019-03-27T01:05:27.525Z,22.1
2019-03-27T01:06:18.083Z,22.3
2019-03-27T01:07:08.473Z,22.4
2019-03-27T01:07:57.077Z,22.6
2019-03-27T01:08:48.519Z,22.7
2019-03-27T01:09:37.758Z,22.8
2019-03-27T01:10:28.410Z,23
2019-03-27T01:11:18.683Z,23.1
2019-03-27T01:12:07.672Z,23.2
2019-03-27T01:12:57.950Z,23.3
2019-03-27T01:13:48.366Z,23.4
2019-03-27T01:14:38.973Z,23
2019-03-27T01:15:42.874Z,22.5
2019-03-27T01:16:18.592Z,21.9
2019-03-27T01:17:07.501Z,21.8
2019-03-27T01:17:58.857Z,21.4
2019-03-27T01:18:48.650Z,21.3
2019-03-27T01:19:38.794Z,21.1
2019-03-27T01:20:28.519Z,20.9
2019-03-27T01:21:18.884Z,20.8
2019-03-27T01:22:08.952Z,20.6
2019-03-27T01:22:58.967Z,20.6
2019-03-27T01:23:49.134Z,20.5
2019-03-27T01:24:38.809Z,20.4
2019-03-27T01:25:29.183Z,20.3
2019-03-27T01:26:19.769Z,20.3
2019-03-27T01:27:09.616Z,20.1
2019-03-27T01:27:59.291Z,20.1
2019-03-27T01:28:49.689Z,20
2019-03-27T01:29:39.784Z,19.9
2019-03-27T01:30:29.843Z,19.9
2019-03-27T01:31:19.564Z,19.8
2019-03-27T01:32:09.617Z,19.8
2019-03-27T01:33:00.251Z,19.7
2019-03-27T01:33:49.466Z,19.6
2019-03-27T01:34:40.214Z,19.6
2019-03-27T01:35:30.460Z,19.4
2019-03-27T01:36:20.006Z,19.4
2019-03-27T01:37:10.532Z,19.3
2019-03-27T01:37:59.497Z,19.3
2019-03-27T01:38:48.998Z,19.3
2019-03-27T01:39:40.216Z,19.2
2019-03-27T01:40:30.078Z,19.1
2019-03-27T01:41:20.166Z,19.1
2019-03-27T01:42:10.629Z,19
2019-03-27T01:43:00.687Z,18.9
2019-03-27T01:43:50.016Z,18.9
2019-03-27T01:44:41.075Z,18.8
2019-03-27T01:45:30.086Z,18.8
2019-03-27T01:47:10.503Z,18.6
2019-03-27T01:48:01.050Z,18.6
2019-03-27T01:48:50.806Z,18.5
2019-03-27T01:49:40.902Z,18.6
2019-03-27T01:50:30.143Z,19.1
2019-03-27T01:51:21.065Z,19.9
2019-03-27T01:52:14.767Z,20.5
2019-03-27T01:53:00.602Z,21
2019-03-27T01:53:51.482Z,21.4
2019-03-27T01:54:41.825Z,21.7
2019-03-27T01:55:31.320Z,21.9
2019-03-27T01:56:21.190Z,22.1
2019-03-27T01:57:11.176Z,22.3
2019-03-27T01:58:01.213Z,22.4
2019-03-27T01:58:51.832Z,22.6
2019-03-27T01:59:41.957Z,22.7
2019-03-27T02:00:31.664Z,22.8
2019-03-27T02:01:21.477Z,22.9
2019-03-27T02:02:12.128Z,23.1
2019-03-27T02:03:01.624Z,23.2
2019-03-27T02:03:52.164Z,23.3
2019-03-27T02:04:42.309Z,23.3
2019-03-27T02:05:32.059Z,22.7
2019-03-27T02:06:22.081Z,22.2
2019-03-27T02:07:12.444Z,21.8
2019-03-27T02:08:02.852Z,21.5
2019-03-27T02:08:52.634Z,21.3
2019-03-27T02:09:41.524Z,21.1
2019-03-27T02:10:32.754Z,20.9
2019-03-27T02:11:22.849Z,20.8
2019-03-27T02:12:12.792Z,20.7
2019-03-27T02:13:02.563Z,20.6
2019-03-27T02:13:53.006Z,20.4
2019-03-27T02:14:42.753Z,20.4
2019-03-27T02:15:32.237Z,20.3
2019-03-27T02:16:22.255Z,20.3
2019-03-27T02:17:13.461Z,20.1
2019-03-27T02:18:02.941Z,20
2019-03-27T02:18:53.066Z,19.9
2019-03-27T02:19:42.832Z,19.9
2019-03-27T02:20:32.836Z,19.8
2019-03-27T02:21:22.640Z,19.8
2019-03-27T02:22:13.303Z,19.7
2019-03-27T02:23:03.321Z,19.6
2019-03-27T02:23:53.933Z,19.6
2019-03-27T02:24:43.701Z,19.5
2019-03-27T02:25:33.218Z,19.4
2019-03-27T02:26:23.687Z,19.4
2019-03-27T02:27:13.988Z,19.3
2019-03-27T02:28:02.870Z,19.3
2019-03-27T02:28:53.251Z,19.2
2019-03-27T02:29:44.098Z,19.1
2019-03-27T02:30:34.129Z,19.1
2019-03-27T02:31:24.330Z,19
2019-03-27T02:32:14.516Z,18.9
2019-03-27T02:33:04.830Z,18.9
2019-03-27T02:33:54.108Z,18.8
2019-03-27T02:34:42.960Z,18.8
2019-03-27T02:37:14.489Z,18.6
2019-03-27T02:38:04.579Z,18.6
2019-03-27T02:38:55.045Z,18.5
2019-03-27T02:39:44.703Z,18.6
2019-03-27T02:40:35.321Z,19
2019-03-27T02:41:24.348Z,19.8
2019-03-27T02:42:13.816Z,20.4
2019-03-27T02:43:04.661Z,20.9
2019-03-27T02:43:55.309Z,21.3
2019-03-27T02:44:45.110Z,21.6
2019-03-27T02:45:35.323Z,21.8
2019-03-27T02:46:33.968Z,22
2019-03-27T02:47:15.205Z,22.2
2019-03-27T02:48:05.782Z,22.4
2019-03-27T02:48:54.532Z,22.5
2019-03-27T02:49:45.917Z,22.6
2019-03-27T02:50:35.595Z,22.8
2019-03-27T02:51:25.475Z,22.9
2019-03-27T02:52:15.916Z,23
2019-03-27T02:53:06.287Z,23.1
2019-03-27T02:53:56.092Z,23.2
2019-03-27T02:54:45.735Z,23.3
2019-03-27T02:55:36.042Z,22.8
2019-03-27T02:56:26.433Z,22.3
2019-03-27T02:57:15.603Z,21.9
2019-03-27T02:58:05.449Z,21.6
2019-03-27T02:58:55.999Z,21.3
2019-03-27T02:59:46.056Z,21.1
2019-03-27T03:00:36.649Z,20.9
2019-03-27T03:01:26.229Z,20.8
2019-03-27T03:02:16.581Z,20.6
2019-03-27T03:03:05.545Z,20.5
2019-03-27T03:03:56.718Z,20.4
2019-03-27T03:07:26.884Z,20.1
2019-03-27T03:08:17.019Z,20
2019-03-27T03:09:07.094Z,19.9
2019-03-27T03:09:58.153Z,19.8
2019-03-27T03:10:52.299Z,19.8
2019-03-27T03:11:37.815Z,19.7
2019-03-27T03:12:27.907Z,19.6
2019-03-27T03:13:18.124Z,19.6
2019-03-27T03:14:07.673Z,19.5
2019-03-27T03:14:57.741Z,19.5
2019-03-27T03:15:47.775Z,19.4
2019-03-27T03:16:51.981Z,19.4
2019-03-27T03:17:28.181Z,19.3
2019-03-27T03:18:18.518Z,19.2
2019-03-27T03:19:08.088Z,19.1
2019-03-27T03:19:57.716Z,19.1
2019-03-27T03:20:48.081Z,19
2019-03-27T03:21:37.575Z,18.9
2019-03-27T03:22:27.776Z,18.9
2019-03-27T03:23:18.838Z,18.8
2019-03-27T03:24:08.574Z,18.8
2019-03-27T03:25:48.552Z,18.6
2019-03-27T03:26:39.231Z,18.6
2019-03-27T03:27:28.932Z,18.5
2019-03-27T03:28:18.819Z,18.4
2019-03-27T03:29:08.482Z,18.4
2019-03-27T03:29:59.420Z,18.5
2019-03-27T03:30:49.708Z,19.1
2019-03-27T03:31:38.993Z,19.9
2019-03-27T03:32:29.523Z,20.4
2019-03-27T03:33:19.557Z,20.9
2019-03-27T03:34:10.278Z,21.2
2019-03-27T03:34:59.363Z,21.5
2019-03-27T03:35:49.492Z,21.7
2019-03-27T03:36:39.660Z,21.9
2019-03-27T03:37:29.627Z,21.8
2019-03-27T03:38:19.783Z,21.2
2019-03-27T03:39:09.715Z,20.2
2019-03-27T03:39:59.309Z,19.9
2019-03-27T03:40:49.842Z,19.9
2019-03-27T03:41:39.881Z,20.5
2019-03-27T03:42:29.447Z,21
2019-03-27T03:43:20.025Z,21.4
2019-03-27T03:44:09.539Z,21.7
2019-03-27T03:45:00.453Z,21.9
2019-03-27T03:45:49.630Z,22.1
2019-03-27T03:46:39.163Z,22.3
2019-03-27T03:47:30.590Z,22.4
2019-03-27T03:48:20.186Z,22.6
2019-03-27T03:49:09.889Z,22.8
2019-03-27T03:50:00.712Z,22.8
2019-03-27T03:51:05.936Z,22.9
2019-03-27T03:51:40.322Z,23.1
2019-03-27T03:52:30.149Z,23.1
2019-03-27T03:53:20.738Z,22.8
2019-03-27T03:54:10.609Z,22.2
2019-03-27T03:55:01.532Z,21.8
2019-03-27T03:55:51.183Z,21.5
2019-03-27T03:56:40.710Z,21.3
2019-03-27T03:57:31.056Z,21
2019-03-27T03:58:21.602Z,20.8
2019-03-27T03:59:11.184Z,20.7
2019-03-27T04:00:01.011Z,20.6
2019-03-27T04:00:51.156Z,20.4
2019-03-27T04:01:41.755Z,20.3
2019-03-27T04:02:30.746Z,20.2
2019-03-27T04:03:21.551Z,20.3
2019-03-27T04:04:11.588Z,20.1
2019-03-27T04:05:01.616Z,19.9
2019-03-27T04:05:51.488Z,19.8
2019-03-27T04:06:41.736Z,19.6
2019-03-27T04:07:31.568Z,19.5
2019-03-27T04:08:21.917Z,19.4
2019-03-27T04:09:11.594Z,19.3
2019-03-27T04:10:02.610Z,19.2
2019-03-27T04:10:52.335Z,19.1
2019-03-27T04:11:41.829Z,19.1
2019-03-27T04:12:30.960Z,19
2019-03-27T04:13:22.080Z,18.9
2019-03-27T04:14:12.018Z,18.9
2019-03-27T04:15:02.058Z,18.9
2019-03-27T04:15:52.399Z,18.9
2019-03-27T04:16:41.955Z,18.8
2019-03-27T04:18:22.607Z,18.6
2019-03-27T04:19:11.227Z,18.6
2019-03-27T04:20:02.429Z,18.5
2019-03-27T04:20:52.802Z,18.4
2019-03-27T04:21:42.922Z,18.4
2019-03-27T04:22:32.622Z,18.3
2019-03-27T04:23:22.969Z,18.3
2019-03-27T04:24:12.373Z,18.3
2019-03-27T04:25:02.977Z,19
2019-03-27T04:26:19.782Z,19.8
2019-03-27T04:26:42.671Z,20.6
2019-03-27T04:27:33.237Z,20.8
2019-03-27T04:29:13.383Z,21.4
2019-03-27T04:30:03.107Z,21.7
2019-03-27T04:30:53.477Z,21.9
2019-03-27T04:31:43.497Z,22
2019-03-27T04:32:33.386Z,22.1
2019-03-27T04:33:23.355Z,22.3
2019-03-27T04:34:12.928Z,22.4
2019-03-27T04:35:03.305Z,22.5
2019-03-27T04:35:54.169Z,22.7
2019-03-27T04:36:43.617Z,22.8
2019-03-27T04:37:33.924Z,22.8
2019-03-27T04:38:23.982Z,22.9
2019-03-27T04:39:13.496Z,23
2019-03-27T04:40:04.058Z,22.5
2019-03-27T04:40:53.636Z,22
2019-03-27T04:41:43.644Z,21.6
2019-03-27T04:42:33.751Z,21.3
2019-03-27T04:43:24.626Z,21.1
2019-03-27T04:44:14.733Z,20.8
2019-03-27T04:45:04.468Z,20.7
2019-03-27T04:45:54.002Z,20.6
2019-03-27T04:46:44.372Z,20.4
2019-03-27T04:47:41.588Z,20.3
2019-03-27T04:48:24.415Z,20.2
2019-03-27T04:49:17.060Z,20.2
2019-03-27T04:50:04.835Z,20
2019-03-27T04:50:55.300Z,19.9
2019-03-27T04:51:44.638Z,19.7
2019-03-27T04:52:34.621Z,19.6
2019-03-27T04:53:24.988Z,19.4
2019-03-27T04:54:14.462Z,19.3
2019-03-27T04:55:05.170Z,19.3
2019-03-27T04:55:54.857Z,19.1
2019-03-27T04:56:45.497Z,19.1
2019-03-27T04:57:35.310Z,19
2019-03-27T04:58:25.717Z,18.9
2019-03-27T04:59:15.196Z,18.9
2019-03-27T05:00:05.180Z,18.9
2019-03-27T05:00:55.662Z,18.9
2019-03-27T05:01:44.360Z,18.8
2019-03-27T05:03:24.887Z,18.6
2019-03-27T05:04:16.101Z,18.6
2019-03-27T05:05:05.750Z,18.5
2019-03-27T05:05:54.896Z,18.4
2019-03-27T05:06:45.677Z,18.4
2019-03-27T05:07:35.711Z,18.4
2019-03-27T05:08:24.749Z,18.3
2019-03-27T05:09:16.489Z,18.3
2019-03-27T05:10:06.279Z,18.3
2019-03-27T05:10:55.504Z,18.3
2019-03-27T05:11:46.054Z,18.3
2019-03-27T05:12:39.822Z,18.3
2019-03-27T05:13:25.591Z,18.2
2019-03-27T05:14:16.181Z,18.1
2019-03-27T05:15:05.966Z,18.1
2019-03-27T05:15:56.674Z,18.1
2019-03-27T05:16:45.853Z,18
2019-03-27T05:17:50.439Z,18
2019-03-27T05:18:26.209Z,17.9
2019-03-27T05:19:16.326Z,18
2019-03-27T05:20:06.599Z,18.8
2019-03-27T05:20:55.056Z,19.6
2019-03-27T05:21:47.278Z,20.2
2019-03-27T05:22:36.367Z,20.7
2019-03-27T05:23:27.235Z,21.1
2019-03-27T05:24:17.188Z,21.4
2019-03-27T05:25:07.073Z,21.6
2019-03-27T05:25:57.043Z,21.8
2019-03-27T05:26:47.086Z,22
2019-03-27T05:27:40.828Z,22.2
2019-03-27T05:28:27.770Z,22.3
2019-03-27T05:29:17.283Z,22.4
2019-03-27T05:30:07.021Z,22.6
2019-03-27T05:30:57.990Z,22.6
2019-03-27T05:31:47.200Z,22.8
2019-03-27T05:32:37.788Z,22.9
2019-03-27T05:33:28.121Z,23
2019-03-27T05:34:17.918Z,23.1
2019-03-27T05:35:07.622Z,22.6
2019-03-27T05:35:57.829Z,22.1
2019-03-27T05:36:47.845Z,21.8
2019-03-27T05:37:38.454Z,21.4
2019-03-27T05:39:21.628Z,20.9
2019-03-27T05:40:07.627Z,20.8
2019-03-27T05:40:58.135Z,20.6
2019-03-27T05:41:48.465Z,20.5
2019-03-27T05:42:38.592Z,20.4
2019-03-27T05:43:28.904Z,20.3
2019-03-27T05:44:18.437Z,20.2
2019-03-27T05:45:08.063Z,20.2
2019-03-27T05:45:57.937Z,20.1
2019-03-27T05:46:48.667Z,20
2019-03-27T05:47:38.097Z,19.9
2019-03-27T05:48:29.027Z,19.9
2019-03-27T05:49:19.022Z,19.8
2019-03-27T05:50:09.062Z,19.8
2019-03-27T05:50:58.865Z,19.6
2019-03-27T05:51:48.432Z,19.6
2019-03-27T05:52:38.977Z,19.5
2019-03-27T05:53:29.297Z,19.4
2019-03-27T05:54:18.799Z,19.4
2019-03-27T05:55:08.345Z,19.3
2019-03-27T05:55:58.716Z,19.2
2019-03-27T05:56:49.634Z,19.2
2019-03-27T05:57:39.866Z,19.1
2019-03-27T05:58:30.014Z,19.1
2019-03-27T05:59:20.025Z,19
2019-03-27T06:00:09.664Z,18.9
2019-03-27T06:00:59.590Z,18.8
2019-03-27T06:01:49.703Z,18.8
2019-03-27T06:02:39.429Z,18.8
2019-03-27T06:05:27.188Z,18.6
2019-03-27T06:06:17.553Z,18.5
2019-03-27T06:07:07.053Z,18.4
2019-03-27T06:07:57.678Z,18.4
2019-03-27T06:08:46.369Z,18.3
2019-03-27T06:09:37.338Z,18.3
2019-03-27T06:10:27.043Z,18.2
2019-03-27T06:11:16.833Z,18.2
2019-03-27T06:12:07.178Z,18.1
2019-03-27T06:12:58.075Z,18.1
2019-03-27T06:13:47.908Z,18
2019-03-27T06:14:37.068Z,18
2019-03-27T06:15:27.345Z,17.9
2019-03-27T06:16:47.382Z,17.9
2019-03-27T06:17:07.891Z,17.8
2019-03-27T06:17:58.183Z,17.8
2019-03-27T06:18:47.650Z,17.8
2019-03-27T06:19:38.506Z,17.7
2019-03-27T06:20:28.338Z,17.8
2019-03-27T06:21:17.783Z,18.3
2019-03-27T06:22:07.848Z,19.2
2019-03-27T06:22:57.393Z,20
2019-03-27T06:23:48.895Z,20.6
2019-03-27T06:24:38.310Z,21.1
2019-03-27T06:25:28.570Z,21.4
2019-03-27T06:26:16.714Z,21.7
2019-03-27T06:27:07.766Z,21.9
2019-03-27T06:27:57.939Z,22.1
2019-03-27T06:28:48.399Z,22.3
2019-03-27T06:29:38.929Z,22.1
2019-03-27T06:30:29.334Z,21.6
2019-03-27T06:32:08.356Z,20.9
2019-03-27T06:32:58.891Z,20.6
2019-03-27T06:33:48.904Z,20.3
2019-03-27T06:34:53.718Z,20.2
2019-03-27T06:35:28.856Z,20
2019-03-27T06:36:18.947Z,19.9
2019-03-27T06:37:08.994Z,19.8
2019-03-27T06:37:59.562Z,19.8
2019-03-27T06:38:49.307Z,19.6
2019-03-27T06:39:39.656Z,19.6
2019-03-27T06:40:29.273Z,19.4
2019-03-27T06:41:19.623Z,19.4
2019-03-27T06:42:08.287Z,19.4
2019-03-27T06:42:59.739Z,19.3
2019-03-27T06:43:49.476Z,19.3
2019-03-27T06:44:39.264Z,19.2
2019-03-27T06:45:30.343Z,19.1
2019-03-27T06:46:18.549Z,19.1
2019-03-27T06:47:10.544Z,18.9
2019-03-27T06:47:59.561Z,18.9
2019-03-27T06:48:49.834Z,18.9
2019-03-27T06:49:40.248Z,18.8
2019-03-27T06:50:30.291Z,18.8
2019-03-27T06:51:20.453Z,18.6
2019-03-27T06:52:10.052Z,18.6
2019-03-27T06:53:00.328Z,18.6
2019-03-27T06:53:49.343Z,18.4
2019-03-27T06:54:40.502Z,18.4
2019-03-27T06:55:30.588Z,18.4
2019-03-27T06:56:19.606Z,18.4
2019-03-27T06:57:10.833Z,18.3
2019-03-27T06:58:01.276Z,18.3
2019-03-27T06:59:03.845Z,18.2
2019-03-27T06:59:40.528Z,18.1
2019-03-27T07:00:30.635Z,18.1
2019-03-27T07:01:21.499Z,18.1
2019-03-27T07:02:11.386Z,17.9
2019-03-27T07:03:01.402Z,17.9
2019-03-27T07:06:00.079Z,17.8
2019-03-27T07:07:05.108Z,18.1
2019-03-27T07:07:20.125Z,19
2019-03-27T07:08:09.685Z,19.2
2019-03-27T07:09:00.501Z,19.9
2019-03-27T07:09:51.105Z,20.6
2019-03-27T07:11:29.678Z,21.3
2019-03-27T07:12:29.997Z,21.1
2019-03-27T07:13:09.863Z,20.8
2019-03-27T07:14:00.632Z,20.7
2019-03-27T07:14:50.480Z,20.5
2019-03-27T07:15:43.832Z,20.4
2019-03-27T07:16:29.490Z,20.3
2019-03-27T07:17:20.865Z,20.2
2019-03-27T07:18:10.905Z,20
2019-03-27T07:19:01.932Z,19.9
2019-03-27T07:20:06.125Z,19.9
2019-03-27T07:20:55.209Z,19.8
2019-03-27T07:21:31.430Z,19.7
2019-03-27T07:22:21.159Z,19.6
2019-03-27T07:23:11.552Z,19.5
2019-03-27T07:24:01.047Z,19.5
2019-03-27T07:24:50.882Z,19.4
2019-03-27T07:25:40.957Z,19.4
2019-03-27T07:26:30.945Z,19.3
2019-03-27T07:27:21.268Z,19.3
2019-03-27T07:28:11.142Z,19.1
2019-03-27T07:29:00.892Z,19.1
2019-03-27T07:29:51.514Z,19
2019-03-27T07:30:41.549Z,18.9
2019-03-27T07:31:32.198Z,18.9
2019-03-27T07:32:21.676Z,18.8
2019-03-27T07:33:11.747Z,18.8
2019-03-27T07:34:51.938Z,18.6
2019-03-27T07:35:41.913Z,18.6
2019-03-27T07:36:32.053Z,18.5
2019-03-27T07:37:21.776Z,18.4
2019-03-27T07:38:11.793Z,18.4
2019-03-27T07:39:17.374Z,18.3
2019-03-27T07:39:51.846Z,18.3
2019-03-27T07:40:42.801Z,18.3
2019-03-27T07:41:31.975Z,18.1
2019-03-27T07:42:22.666Z,18.1
2019-03-27T07:43:13.003Z,18.1
2019-03-27T07:44:02.204Z,18
2019-03-27T07:44:52.848Z,17.9
2019-03-27T07:45:42.601Z,17.9
2019-03-27T07:46:31.921Z,17.8
2019-03-27T07:47:21.965Z,17.8
2019-03-27T07:48:12.878Z,17.8
2019-03-27T07:49:03.050Z,18.1
2019-03-27T07:49:52.715Z,19.1
2019-03-27T07:50:42.908Z,19.9
2019-03-27T07:51:32.810Z,20.5
2019-03-27T07:52:23.214Z,21.1
2019-03-27T07:53:13.152Z,21.4
2019-03-27T07:54:53.117Z,20.9
2019-03-27T07:55:43.713Z,20.7
2019-03-27T07:56:33.995Z,20.6
2019-03-27T07:57:23.751Z,20.4
2019-03-27T07:58:14.072Z,20.3
2019-03-27T07:59:06.724Z,20.2
2019-03-27T07:59:52.845Z,20.1
2019-03-27T08:00:44.367Z,20
2019-03-27T08:01:34.049Z,19.9
2019-03-27T08:02:24.161Z,19.8
2019-03-27T08:03:13.968Z,19.8
2019-03-27T08:04:03.653Z,19.6
2019-03-27T08:04:52.611Z,19.6
2019-03-27T08:05:44.046Z,19.5
2019-03-27T08:06:34.085Z,19.4
2019-03-27T08:07:35.868Z,19.4
2019-03-27T08:08:14.273Z,19.3
2019-03-27T08:09:04.043Z,19.3
2019-03-27T08:09:54.996Z,19.1
2019-03-27T08:10:43.588Z,19.1
2019-03-27T08:11:37.985Z,19
2019-03-27T08:12:24.860Z,19
2019-03-27T08:13:13.918Z,18.9
2019-03-27T08:14:04.169Z,18.9
2019-03-27T08:14:54.863Z,18.8
2019-03-27T08:15:48.465Z,18.8
2019-03-27T08:16:34.115Z,18.6
2019-03-27T08:17:24.142Z,18.6
2019-03-27T08:18:13.443Z,18.5
2019-03-27T08:19:16.257Z,18.4
2019-03-27T08:19:54.602Z,18.4
2019-03-27T08:20:44.980Z,18.3
2019-03-27T08:21:39.346Z,18.3
2019-03-27T08:22:24.467Z,18.2
2019-03-27T08:23:15.044Z,18.2
2019-03-27T08:24:05.977Z,18.2
2019-03-27T08:25:45.275Z,19.6
2019-03-27T08:26:35.104Z,20.3
2019-03-27T08:27:25.962Z,20.9
2019-03-27T08:28:15.790Z,21.4
2019-03-27T08:29:05.864Z,21.4
2019-03-27T08:30:45.954Z,20.9
2019-03-27T08:31:35.651Z,20.8
2019-03-27T08:32:26.620Z,20.6
2019-03-27T08:33:16.314Z,20.4
2019-03-27T08:34:06.426Z,20.3
2019-03-27T08:34:55.902Z,20.2
2019-03-27T08:35:45.940Z,20.1
2019-03-27T08:36:36.981Z,20
2019-03-27T08:37:26.116Z,19.9
2019-03-27T08:38:19.909Z,19.9
2019-03-27T08:39:06.446Z,19.8
2019-03-27T08:39:56.332Z,19.7
2019-03-27T08:40:46.681Z,19.6
2019-03-27T08:41:37.213Z,19.5
2019-03-27T08:42:26.451Z,19.4
2019-03-27T08:43:33.246Z,19.4
2019-03-27T08:44:06.647Z,19.3
2019-03-27T08:44:57.206Z,19.3
2019-03-27T08:45:47.514Z,19.2
2019-03-27T08:46:37.441Z,19.1
2019-03-27T08:47:27.378Z,19.1
2019-03-27T08:48:15.853Z,19
2019-03-27T08:49:22.606Z,18.9
2019-03-27T08:50:11.707Z,18.8
2019-03-27T08:50:47.649Z,18.8
2019-03-27T08:51:37.648Z,18.8
2019-03-27T08:53:17.090Z,18.6
2019-03-27T08:54:07.373Z,18.6
2019-03-27T08:54:58.187Z,18.5
2019-03-27T08:55:48.225Z,18.4
2019-03-27T08:56:38.040Z,18.4
2019-03-27T08:57:27.833Z,18.3
2019-03-27T08:58:18.401Z,18.3
2019-03-27T08:59:07.409Z,18.2
2019-03-27T08:59:57.754Z,18.1
2019-03-27T09:00:47.570Z,18.1
2019-03-27T09:01:36.943Z,18
2019-03-27T09:02:27.742Z,17.9
2019-03-27T09:03:17.731Z,17.9
2019-03-27T09:04:07.811Z,17.8
2019-03-27T09:04:58.191Z,17.8
2019-03-27T09:05:47.658Z,17.9
2019-03-27T09:06:42.051Z,18.6
2019-03-27T09:07:28.084Z,19.6
2019-03-27T09:08:18.473Z,20.3
2019-03-27T09:09:23.130Z,20.8
2019-03-27T09:09:58.023Z,21.5
2019-03-27T09:10:48.356Z,21.4
2019-03-27T09:11:37.570Z,21.2
2019-03-27T09:12:28.708Z,21
2019-03-27T09:13:17.368Z,20.8
2019-03-27T09:14:09.088Z,20.6
2019-03-27T09:14:59.338Z,20.4
2019-03-27T09:15:48.960Z,20.4
2019-03-27T09:16:38.721Z,20.3
2019-03-27T09:17:29.010Z,20.1
2019-03-27T09:18:23.048Z,20.1
2019-03-27T09:19:09.918Z,19.9
2019-03-27T09:19:59.775Z,19.9
2019-03-27T09:20:49.558Z,19.8
2019-03-27T09:21:39.344Z,19.7
2019-03-27T09:22:29.436Z,19.6
2019-03-27T09:23:20.466Z,19.6
2019-03-27T09:24:10.062Z,19.5
2019-03-27T09:24:58.782Z,19.4
2019-03-27T09:25:49.570Z,19.3
2019-03-27T09:26:40.417Z,19.3
2019-03-27T09:27:44.863Z,19.2
2019-03-27T09:28:20.377Z,19.1
2019-03-27T09:29:13.450Z,19.1
2019-03-27T09:30:00.373Z,19
2019-03-27T09:30:51.197Z,18.9
2019-03-27T09:31:53.627Z,18.9
2019-03-27T09:32:30.653Z,18.8
2019-03-27T09:35:00.524Z,18.6
2019-03-27T09:35:51.850Z,18.6
2019-03-27T09:36:41.347Z,18.5
2019-03-27T09:37:31.273Z,18.5
2019-03-27T09:38:21.546Z,18.4
2019-03-27T09:39:10.829Z,18.3
2019-03-27T09:40:01.359Z,18.3
2019-03-27T09:40:50.369Z,18.3
2019-03-27T09:41:40.736Z,18.2
2019-03-27T09:42:30.894Z,18.1
2019-03-27T09:43:20.362Z,18.1
2019-03-27T09:44:11.305Z,18
2019-03-27T09:45:01.854Z,17.9
2019-03-27T09:45:51.329Z,17.9
2019-03-27T09:46:40.609Z,17.8
2019-03-27T09:47:34.402Z,17.8
2019-03-27T09:48:21.568Z,18.4
2019-03-27T09:49:12.079Z,19.4
2019-03-27T09:50:01.306Z,20.1
2019-03-27T09:50:51.656Z,20.8
2019-03-27T09:51:41.519Z,21.4
2019-03-27T09:52:32.080Z,21.4
2019-03-27T09:53:22.096Z,21.2
2019-03-27T09:54:11.931Z,21
2019-03-27T09:55:01.872Z,20.8
2019-03-27T09:55:51.196Z,20.6
2019-03-27T09:56:41.784Z,20.5
2019-03-27T09:57:32.069Z,20.4
2019-03-27T09:58:22.759Z,20.3
2019-03-27T09:59:14.423Z,20.1
2019-03-27T10:00:01.914Z,20.1
2019-03-27T10:00:53.383Z,20
2019-03-27T10:01:42.259Z,19.9
2019-03-27T10:02:32.746Z,19.8
2019-03-27T10:03:22.295Z,19.7
2019-03-27T10:04:12.323Z,19.7
2019-03-27T10:06:27.351Z,19.5
2019-03-27T10:07:31.123Z,19.4
2019-03-27T10:08:06.871Z,19.3
2019-03-27T10:08:56.724Z,19.3
2019-03-27T10:09:50.773Z,19.2
2019-03-27T10:10:37.697Z,19.1
2019-03-27T10:11:31.235Z,19.1
2019-03-27T10:12:16.878Z,19
2019-03-27T10:13:07.193Z,18.9
2019-03-27T10:13:56.991Z,18.9
2019-03-27T10:14:51.140Z,18.9
2019-03-27T10:15:36.867Z,18.8
2019-03-27T10:18:07.087Z,18.6
2019-03-27T10:18:58.258Z,18.6
2019-03-27T10:19:47.174Z,18.5
2019-03-27T10:20:38.333Z,18.4
2019-03-27T10:21:27.282Z,18.4
2019-03-27T10:22:17.105Z,18.3
2019-03-27T10:23:08.602Z,18.3
2019-03-27T10:23:58.287Z,18.2
2019-03-27T10:24:46.621Z,18.1
2019-03-27T10:25:37.627Z,18.1
2019-03-27T10:26:28.080Z,18
2019-03-27T10:27:17.834Z,18
2019-03-27T10:28:07.414Z,17.9
2019-03-27T10:28:58.646Z,17.9
2019-03-27T10:29:48.784Z,17.9
2019-03-27T10:30:37.404Z,18.4
2019-03-27T10:31:29.100Z,19.4
2019-03-27T10:32:18.671Z,20.2
2019-03-27T10:33:08.566Z,20.8
2019-03-27T10:33:59.097Z,21.5
2019-03-27T10:34:48.052Z,21.5
2019-03-27T10:35:37.620Z,21.1
2019-03-27T10:36:28.958Z,20.8
2019-03-27T10:37:18.736Z,20.4
2019-03-27T10:38:07.959Z,20.3
2019-03-27T10:38:57.781Z,20.1
2019-03-27T10:39:49.256Z,19.9
2019-03-27T10:40:38.033Z,19.8
2019-03-27T10:41:28.475Z,19.6
2019-03-27T10:42:19.108Z,19.6
2019-03-27T10:43:08.646Z,19.5
2019-03-27T10:43:59.453Z,19.4
2019-03-27T10:44:49.083Z,19.3
2019-03-27T10:45:39.210Z,19.3
2019-03-27T10:46:28.937Z,19.2
2019-03-27T10:47:19.168Z,19.1
2019-03-27T10:48:09.311Z,19.1
2019-03-27T10:49:01.686Z,19
2019-03-27T10:49:50.005Z,18.9
2019-03-27T10:50:39.818Z,18.9
2019-03-27T10:51:29.301Z,18.8
2019-03-27T10:52:19.750Z,18.8
2019-03-27T10:53:09.855Z,18.8
2019-03-27T10:54:50.327Z,18.6
2019-03-27T10:55:42.655Z,18.6
2019-03-27T10:56:30.087Z,18.5
2019-03-27T10:57:21.054Z,18.4
2019-03-27T10:58:11.012Z,18.4
2019-03-27T10:59:01.060Z,18.4
2019-03-27T10:59:50.966Z,18.3
2019-03-27T11:00:40.076Z,18.3
2019-03-27T11:01:31.297Z,18.2
2019-03-27T11:02:21.392Z,18.1
2019-03-27T11:03:10.846Z,18.3
2019-03-27T11:04:01.567Z,19.2
2019-03-27T11:04:51.289Z,20.1
2019-03-27T11:05:41.549Z,20.8
2019-03-27T11:06:31.412Z,21.4
2019-03-27T11:07:21.533Z,21.6
2019-03-27T11:08:15.254Z,21.4
2019-03-27T11:09:01.602Z,21.2
2019-03-27T11:09:51.174Z,21
2019-03-27T11:10:40.872Z,20.9
2019-03-27T11:11:30.659Z,20.8
2019-03-27T11:12:21.556Z,20.6
2019-03-27T11:13:11.568Z,20.5
2019-03-27T11:14:01.309Z,20.4
2019-03-27T11:14:51.374Z,20.3
2019-03-27T11:15:41.731Z,20.3
2019-03-27T11:16:31.308Z,20.1
2019-03-27T11:17:20.776Z,20.1
2019-03-27T11:18:11.906Z,20
2019-03-27T11:19:01.686Z,19.9
2019-03-27T11:19:52.020Z,19.8
2019-03-27T11:20:41.863Z,19.8
2019-03-27T11:21:32.710Z,19.7
2019-03-27T11:22:22.460Z,19.6
2019-03-27T11:23:12.534Z,19.6
2019-03-27T11:24:01.839Z,19.5
2019-03-27T11:24:52.744Z,19.4
2019-03-27T11:25:42.511Z,19.3
2019-03-27T11:26:32.822Z,19.3
2019-03-27T11:27:22.336Z,19.2
2019-03-27T11:28:12.264Z,19.1
2019-03-27T11:29:02.554Z,19.1
2019-03-27T11:29:52.066Z,19
2019-03-27T11:30:42.365Z,18.9
2019-03-27T11:31:32.477Z,18.9
2019-03-27T11:32:21.970Z,18.9
2019-03-27T11:33:12.911Z,18.8
2019-03-27T11:34:02.563Z,18.8
2019-03-27T11:34:53.358Z,18.6
2019-03-27T11:35:42.703Z,18.6
2019-03-27T11:36:37.195Z,18.6